Monroe, IA (50170)

7:38 PM CDT on April 30, 2017 (GMT -0500)
Rural | | Change Station

Elev 922 ft 41.55 °N, 93.12 °W | Updated 28 seconds ago

Rain
Rain
46.2 °F
Feels Like 42 °F
N
8.9
Wind Variable Wind from NNW
Gusts 9.8 mph

Today
High -- | Low -- °F
--% Chance of Precip.
Yesterday
High -- | Low -- °F
Precip. -- in
Pressure 29.55 in
Visibility 1.0 miles
Clouds Mostly Cloudy 400 ft
Mostly Cloudy 1000 ft
Overcast 2400 ft
Windchill 42 °F
Dew Point 46 °F
Humidity 97%
Rainfall 0.07 in
Snow Depth Not available.
6:10 AM 8:09 PM
Waxing Crescent, 27% visible
METAR KTNU 010015Z AUTO 31005G11KT 1SM BR BKN004 BKN010 OVC024 08/07 A2955 RMK AO2 PWINO
Pressure 29.55 in
Visibility 1.0 miles
Clouds Mostly Cloudy 400 ft
Mostly Cloudy 1000 ft
Overcast 2400 ft
Windchill 42 °F
Dew Point 46 °F
Humidity 97%
Rainfall 0.07 in
Snow Depth Not available.
6:10 AM 8:09 PM
Waxing Crescent, 27% visible
METAR KTNU 010015Z AUTO 31005G11KT 1SM BR BKN004 BKN010 OVC024 08/07 A2955 RMK AO2 PWINO

Get Severe Weather Alerts

Thanks for signing up!

Be on the lookout for a verification email in your inbox.

You'll start receiving the daily forecast at 8 AM.

×

10-Day Weather Forecast

Almanac

Astronomy

Apr. 30, 2017 Rise Set
Actual Time
Civil Twilight
Nautical Twilight
Astronomical Twilight
Moon
Length of Visible Light
Length of Day
Tomorrow will be .
, % of the Moon is Illuminated

Today's Extremes

State Highs State Lows

Community

WunderPhotos

WunderBlog® & News

Nearby

Air Quality

  Air Quality AQ Index Pollutant
Not available.

Snow Depth

Station Depth Elevation

Earthquake Activity

City Distance Mag. Time & Date
Minimum magnitude displayed is 2.5.

Coastal Water Temperatures

Place Temperature

Stations

Nearby Weather Stations

Station Location Temp. Windchill Dew Point Humidity Wind Precip. Elev Updated Type
                   

Watches & Warnings

There are currently no watches in effect.